sensor_id;sensor_type;location;lat;lon;timestamp;pressure;altitude;pressure_sealevel;temperature;humidity
3844;BME280;1937;51.444;6.484;2022-07-23T00:01:56;74950.31;;;18.17;100.00
3844;BME280;1937;51.444;6.484;2022-07-23T00:04:24;75080.81;;;17.90;100.00
3844;BME280;1937;51.444;6.484;2022-07-23T00:06:53;75451.50;;;17.90;100.00
3844;BME280;1937;51.444;6.484;2022-07-23T00:09:21;75649.69;;;18.07;100.00
3844;BME280;1937;51.444;6.484;2022-07-23T00:11:51;75513.22;;;18.08;100.00
3844;BME280;1937;51.444;6.484;2022-07-23T00:14:19;75403.69;;;18.00;100.00
3844;BME280;1937;51.444;6.484;2022-07-23T00:16:47;75516.66;;;17.96;100.00
3844;BME280;1937;51.444;6.484;2022-07-23T00:19:15;75508.63;;;18.09;100.00
3844;BME280;1937;51.444;6.484;2022-07-23T00:21:44;75652.31;;;18.05;100.00
3844;BME280;1937;51.444;6.484;2022-07-23T00:24:12;75755.44;;;18.06;100.00
3844;BME280;1937;51.444;6.484;2022-07-23T00:26:40;75745.19;;;17.89;100.00
3844;BME280;1937;51.444;6.484;2022-07-23T00:29:10;75941.81;;;17.64;100.00
3844;BME280;1937;51.444;6.484;2022-07-23T00:31:38;76262.16;;;17.69;100.00
3844;BME280;1937;51.444;6.484;2022-07-23T00:34:07;76147.25;;;17.81;100.00
3844;BME280;1937;51.444;6.484;2022-07-23T00:36:35;76016.06;;;17.83;100.00
3844;BME280;1937;51.444;6.484;2022-07-23T00:39:04;75876.50;;;17.70;100.00
3844;BME280;1937;51.444;6.484;2022-07-23T00:41:32;76051.41;;;17.57;100.00
3844;BME280;1937;51.444;6.484;2022-07-23T00:46:55;76431.75;;;17.43;100.00
3844;BME280;1937;51.444;6.484;2022-07-23T00:49:26;76505.50;;;17.57;100.00
3844;BME280;1937;51.444;6.484;2022-07-23T00:51:56;76322.84;;;17.64;100.00
3844;BME280;1937;51.444;6.484;2022-07-23T00:54:25;76157.75;;;17.57;100.00
3844;BME280;1937;51.444;6.484;2022-07-23T00:56:54;76030.56;;;17.53;100.00
3844;BME280;1937;51.444;6.484;2022-07-23T00:59:23;75958.22;;;17.40;100.00
3844;BME280;1937;51.444;6.484;2022-07-23T01:01:52;76078.84;;;17.46;100.00
3844;BME280;1937;51.444;6.484;2022-07-23T01:04:22;75973.91;;;17.36;100.00
3844;BME280;1937;51.444;6.484;2022-07-23T01:06:50;76084.75;;;17.39;100.00
3844;BME280;1937;51.444;6.484;2022-07-23T01:09:19;76211.28;;;17.40;100.00
3844;BME280;1937;51.444;6.484;2022-07-23T01:11:47;76272.56;;;17.45;100.00
3844;BME280;1937;51.444;6.484;2022-07-23T01:14:18;76167.59;;;17.40;100.00
3844;BME280;1937;51.444;6.484;2022-07-23T01:16:48;76178.00;;;17.44;100.00
3844;BME280;1937;51.444;6.484;2022-07-23T01:19:17;76060.66;;;17.30;100.00
3844;BME280;1937;51.444;6.484;2022-07-23T01:21:49;76118.72;;;17.25;100.00
3844;BME280;1937;51.444;6.484;2022-07-23T01:24:20;76099.19;;;17.07;100.00
3844;BME280;1937;51.444;6.484;2022-07-23T01:26:49;76160.47;;;16.98;100.00
3844;BME280;1937;51.444;6.484;2022-07-23T01:29:18;76511.88;;;17.20;100.00
3844;BME280;1937;51.444;6.484;2022-07-23T01:31:49;76412.13;;;17.24;100.00
3844;BME280;1937;51.444;6.484;2022-07-23T01:34:18;76204.78;;;17.16;100.00
3844;BME280;1937;51.444;6.484;2022-07-23T01:36:46;76042.44;;;17.16;100.00
3844;BME280;1937;51.444;6.484;2022-07-23T01:39:15;75557.09;;;16.89;100.00
3844;BME280;1937;51.444;6.484;2022-07-23T01:41:44;75681.03;;;16.70;100.00
3844;BME280;1937;51.444;6.484;2022-07-23T01:44:13;75904.50;;;16.61;100.00
3844;BME280;1937;51.444;6.484;2022-07-23T01:46:43;76085.59;;;16.60;100.00
3844;BME280;1937;51.444;6.484;2022-07-23T01:49:12;76183.28;;;16.59;100.00
3844;BME280;1937;51.444;6.484;2022-07-23T01:51:40;76204.75;;;16.54;100.00
3844;BME280;1937;51.444;6.484;2022-07-23T01:54:26;76337.63;;;16.58;100.00
3844;BME280;1937;51.444;6.484;2022-07-23T01:56:57;76270.53;;;16.56;100.00
3844;BME280;1937;51.444;6.484;2022-07-23T01:59:27;76264.66;;;16.46;100.00
3844;BME280;1937;51.444;6.484;2022-07-23T02:01:56;76254.88;;;16.34;100.00
3844;BME280;1937;51.444;6.484;2022-07-23T02:04:26;76669.78;;;16.49;100.00
3844;BME280;1937;51.444;6.484;2022-07-23T02:06:55;76547.94;;;16.45;100.00
3844;BME280;1937;51.444;6.484;2022-07-23T02:09:23;76481.44;;;16.32;100.00
3844;BME280;1937;51.444;6.484;2022-07-23T02:11:52;76525.66;;;16.24;100.00
3844;BME280;1937;51.444;6.484;2022-07-23T02:14:21;76984.22;;;16.36;100.00
3844;BME280;1937;51.444;6.484;2022-07-23T02:16:50;76894.91;;;16.29;100.00
3844;BME280;1937;51.444;6.484;2022-07-23T02:19:18;77029.19;;;16.38;100.00
3844;BME280;1937;51.444;6.484;2022-07-23T02:21:46;76777.09;;;16.33;100.00
3844;BME280;1937;51.444;6.484;2022-07-23T02:24:15;76655.91;;;16.26;100.00
3844;BME280;1937;51.444;6.484;2022-07-23T02:26:43;76633.88;;;16.39;100.00
3844;BME280;1937;51.444;6.484;2022-07-23T02:29:12;76498.34;;;16.27;100.00
3844;BME280;1937;51.444;6.484;2022-07-23T02:31:42;76527.66;;;16.29;100.00
3844;BME280;1937;51.444;6.484;2022-07-23T02:34:11;76499.63;;;16.26;100.00
3844;BME280;1937;51.444;6.484;2022-07-23T02:36:40;76610.31;;;16.23;100.00
3844;BME280;1937;51.444;6.484;2022-07-23T02:39:08;76873.53;;;16.39;100.00
3844;BME280;1937;51.444;6.484;2022-07-23T02:41:37;76670.28;;;16.33;100.00
3844;BME280;1937;51.444;6.484;2022-07-23T02:44:05;76752.31;;;16.32;100.00
3844;BME280;1937;51.444;6.484;2022-07-23T02:46:33;76734.09;;;16.30;100.00
3844;BME280;1937;51.444;6.484;2022-07-23T02:49:03;76674.78;;;16.26;100.00
3844;BME280;1937;51.444;6.484;2022-07-23T02:51:33;76582.97;;;16.26;100.00
3844;BME280;1937;51.444;6.484;2022-07-23T02:54:01;76577.75;;;16.26;100.00
3844;BME280;1937;51.444;6.484;2022-07-23T02:56:29;76369.38;;;16.14;100.00
3844;BME280;1937;51.444;6.484;2022-07-23T02:58:58;76297.72;;;16.03;100.00
3844;BME280;1937;51.444;6.484;2022-07-23T03:01:26;76297.03;;;15.94;100.00
3844;BME280;1937;51.444;6.484;2022-07-23T03:03:54;76248.97;;;16.13;100.00
3844;BME280;1937;51.444;6.484;2022-07-23T03:06:24;75910.53;;;16.01;100.00
3844;BME280;1937;51.444;6.484;2022-07-23T03:08:52;75764.91;;;15.67;100.00
3844;BME280;1937;51.444;6.484;2022-07-23T03:11:21;75872.19;;;15.45;100.00
3844;BME280;1937;51.444;6.484;2022-07-23T03:13:49;76229.22;;;15.53;100.00
3844;BME280;1937;51.444;6.484;2022-07-23T03:16:17;76390.56;;;15.66;100.00
3844;BME280;1937;51.444;6.484;2022-07-23T03:18:46;76314.38;;;15.53;100.00
3844;BME280;1937;51.444;6.484;2022-07-23T03:21:14;76429.44;;;15.51;100.00
3844;BME280;1937;51.444;6.484;2022-07-23T03:23:44;76566.66;;;15.49;100.00
3844;BME280;1937;51.444;6.484;2022-07-23T03:26:12;76530.88;;;15.49;100.00
3844;BME280;1937;51.444;6.484;2022-07-23T03:28:41;76543.22;;;15.47;100.00
3844;BME280;1937;51.444;6.484;2022-07-23T03:31:09;76528.97;;;15.52;100.00
3844;BME280;1937;51.444;6.484;2022-07-23T03:33:37;76707.06;;;15.45;100.00
3844;BME280;1937;51.444;6.484;2022-07-23T03:36:06;76840.38;;;15.45;100.00
3844;BME280;1937;51.444;6.484;2022-07-23T03:38:35;77128.56;;;15.49;100.00
3844;BME280;1937;51.444;6.484;2022-07-23T03:41:04;77007.75;;;15.58;100.00
3844;BME280;1937;51.444;6.484;2022-07-23T03:43:33;77055.97;;;15.63;100.00
3844;BME280;1937;51.444;6.484;2022-07-23T03:46:01;77139.41;;;15.71;100.00
3844;BME280;1937;51.444;6.484;2022-07-23T03:48:29;76892.22;;;15.75;100.00
3844;BME280;1937;51.444;6.484;2022-07-23T03:50:58;76688.50;;;15.67;100.00
3844;BME280;1937;51.444;6.484;2022-07-23T03:53:26;76646.88;;;15.69;100.00
3844;BME280;1937;51.444;6.484;2022-07-23T03:55:54;76594.78;;;15.65;100.00
3844;BME280;1937;51.444;6.484;2022-07-23T03:58:24;76448.41;;;15.62;100.00
3844;BME280;1937;51.444;6.484;2022-07-23T04:00:53;76477.13;;;15.72;100.00
3844;BME280;1937;51.444;6.484;2022-07-23T04:03:21;76094.63;;;15.62;100.00
3844;BME280;1937;51.444;6.484;2022-07-23T04:05:50;76066.63;;;15.56;100.00
3844;BME280;1937;51.444;6.484;2022-07-23T04:08:18;76015.91;;;15.57;100.00
3844;BME280;1937;51.444;6.484;2022-07-23T04:10:46;75843.59;;;15.49;100.00
3844;BME280;1937;51.444;6.484;2022-07-23T04:13:15;75831.22;;;15.51;100.00
3844;BME280;1937;51.444;6.484;2022-07-23T04:15:44;75950.22;;;15.49;100.00
3844;BME280;1937;51.444;6.484;2022-07-23T04:18:13;75990.53;;;15.42;100.00
3844;BME280;1937;51.444;6.484;2022-07-23T04:20:44;76219.41;;;15.50;100.00
3844;BME280;1937;51.444;6.484;2022-07-23T04:23:13;76207.00;;;15.40;100.00
3844;BME280;1937;51.444;6.484;2022-07-23T04:25:43;76499.72;;;15.53;100.00
3844;BME280;1937;51.444;6.484;2022-07-23T04:28:12;76323.59;;;15.70;100.00
3844;BME280;1937;51.444;6.484;2022-07-23T04:30:40;76047.16;;;15.74;100.00
3844;BME280;1937;51.444;6.484;2022-07-23T04:33:10;75954.16;;;15.84;100.00
3844;BME280;1937;51.444;6.484;2022-07-23T04:35:38;75731.66;;;15.87;100.00
3844;BME280;1937;51.444;6.484;2022-07-23T04:38:07;75600.28;;;15.80;100.00
3844;BME280;1937;51.444;6.484;2022-07-23T04:40:35;75571.09;;;15.72;100.00
3844;BME280;1937;51.444;6.484;2022-07-23T04:43:03;75859.81;;;15.82;100.00
3844;BME280;1937;51.444;6.484;2022-07-23T04:45:33;75955.44;;;15.89;100.00
3844;BME280;1937;51.444;6.484;2022-07-23T04:48:01;76023.75;;;16.02;100.00
3844;BME280;1937;51.444;6.484;2022-07-23T04:50:30;75829.09;;;16.21;100.00
3844;BME280;1937;51.444;6.484;2022-07-23T04:52:59;75560.28;;;16.24;100.00
3844;BME280;1937;51.444;6.484;2022-07-23T04:55:27;75343.50;;;16.26;100.00
3844;BME280;1937;51.444;6.484;2022-07-23T04:57:55;75384.47;;;16.31;100.00
3844;BME280;1937;51.444;6.484;2022-07-23T05:00:25;75444.31;;;16.33;100.00
3844;BME280;1937;51.444;6.484;2022-07-23T05:02:53;75448.09;;;16.47;100.00
3844;BME280;1937;51.444;6.484;2022-07-23T05:05:22;75481.22;;;16.52;100.00
3844;BME280;1937;51.444;6.484;2022-07-23T05:07:52;75537.78;;;16.64;100.00
3844;BME280;1937;51.444;6.484;2022-07-23T05:10:20;75264.25;;;16.64;100.00
3844;BME280;1937;51.444;6.484;2022-07-23T05:12:49;75160.44;;;16.81;100.00
3844;BME280;1937;51.444;6.484;2022-07-23T05:15:17;75166.38;;;16.77;100.00
3844;BME280;1937;51.444;6.484;2022-07-23T05:17:45;75102.94;;;16.91;100.00
3844;BME280;1937;51.444;6.484;2022-07-23T05:20:13;75185.44;;;17.04;100.00
3844;BME280;1937;51.444;6.484;2022-07-23T05:22:42;75152.84;;;17.05;100.00
3844;BME280;1937;51.444;6.484;2022-07-23T05:25:12;74752.31;;;16.69;100.00
3844;BME280;1937;51.444;6.484;2022-07-23T05:27:40;75165.94;;;16.62;100.00
3844;BME280;1937;51.444;6.484;2022-07-23T05:30:10;75432.78;;;16.75;100.00
3844;BME280;1937;51.444;6.484;2022-07-23T05:32:39;75546.78;;;16.75;100.00
3844;BME280;1937;51.444;6.484;2022-07-23T05:35:09;75790.97;;;16.93;100.00
3844;BME280;1937;51.444;6.484;2022-07-23T05:37:39;75908.88;;;17.01;100.00
3844;BME280;1937;51.444;6.484;2022-07-23T05:40:09;75584.09;;;17.23;100.00
3844;BME280;1937;51.444;6.484;2022-07-23T05:42:40;75155.63;;;16.95;100.00
3844;BME280;1937;51.444;6.484;2022-07-23T05:45:10;75725.66;;;17.09;100.00
3844;BME280;1937;51.444;6.484;2022-07-23T05:47:45;75592.81;;;16.97;100.00
3844;BME280;1937;51.444;6.484;2022-07-23T05:50:15;75896.28;;;17.38;100.00
3844;BME280;1937;51.444;6.484;2022-07-23T05:52:44;75283.97;;;17.39;100.00
3844;BME280;1937;51.444;6.484;2022-07-23T05:55:13;75000.25;;;17.43;100.00
3844;BME280;1937;51.444;6.484;2022-07-23T05:57:44;74844.84;;;17.52;100.00
3844;BME280;1937;51.444;6.484;2022-07-23T06:00:13;75200.22;;;17.55;100.00
3844;BME280;1937;51.444;6.484;2022-07-23T06:02:41;74988.63;;;17.69;100.00
3844;BME280;1937;51.444;6.484;2022-07-23T06:05:12;74699.53;;;17.74;100.00
3844;BME280;1937;51.444;6.484;2022-07-23T06:07:40;74599.25;;;17.91;100.00
3844;BME280;1937;51.444;6.484;2022-07-23T06:10:10;74388.31;;;17.77;100.00
3844;BME280;1937;51.444;6.484;2022-07-23T06:12:39;74226.13;;;17.89;100.00
3844;BME280;1937;51.444;6.484;2022-07-23T06:15:11;74039.31;;;17.96;100.00
3844;BME280;1937;51.444;6.484;2022-07-23T06:17:40;73760.69;;;17.97;100.00
3844;BME280;1937;51.444;6.484;2022-07-23T06:20:10;73647.59;;;18.17;100.00
3844;BME280;1937;51.444;6.484;2022-07-23T06:22:39;73723.28;;;18.32;100.00
3844;BME280;1937;51.444;6.484;2022-07-23T06:25:09;73365.03;;;18.31;99.70
3844;BME280;1937;51.444;6.484;2022-07-23T06:27:37;73222.78;;;18.56;99.11
3844;BME280;1937;51.444;6.484;2022-07-23T06:30:07;73054.00;;;18.73;98.26
3844;BME280;1937;51.444;6.484;2022-07-23T06:32:38;73110.88;;;18.96;97.57
3844;BME280;1937;51.444;6.484;2022-07-23T06:35:07;72951.31;;;18.88;98.55
3844;BME280;1937;51.444;6.484;2022-07-23T06:37:36;73121.34;;;18.96;98.45
3844;BME280;1937;51.444;6.484;2022-07-23T06:40:05;72880.69;;;19.00;97.12
3844;BME280;1937;51.444;6.484;2022-07-23T06:42:34;72784.38;;;18.73;98.94
3844;BME280;1937;51.444;6.484;2022-07-23T06:45:04;72938.44;;;18.96;98.00
3844;BME280;1937;51.444;6.484;2022-07-23T06:47:33;72690.41;;;19.24;95.82
3844;BME280;1937;51.444;6.484;2022-07-23T06:50:02;72363.72;;;19.33;93.72
3844;BME280;1937;51.444;6.484;2022-07-23T06:52:31;72236.44;;;19.40;93.43
3844;BME280;1937;51.444;6.484;2022-07-23T06:54:59;71994.25;;;19.36;93.06
3844;BME280;1937;51.444;6.484;2022-07-23T06:57:29;71844.97;;;19.14;94.83
3844;BME280;1937;51.444;6.484;2022-07-23T06:59:57;72027.81;;;19.51;92.93
3844;BME280;1937;51.444;6.484;2022-07-23T07:02:25;72029.84;;;19.85;91.44
3844;BME280;1937;51.444;6.484;2022-07-23T07:04:53;71934.56;;;20.08;91.61
3844;BME280;1937;51.444;6.484;2022-07-23T07:07:24;71597.88;;;20.13;88.04
3844;BME280;1937;51.444;6.484;2022-07-23T07:09:52;71377.00;;;20.40;86.18
3844;BME280;1937;51.444;6.484;2022-07-23T07:12:20;71188.53;;;20.18;86.99
3844;BME280;1937;51.444;6.484;2022-07-23T07:14:49;71301.44;;;20.73;85.17
3844;BME280;1937;51.444;6.484;2022-07-23T07:17:17;71155.69;;;20.91;83.76
3844;BME280;1937;51.444;6.484;2022-07-23T07:19:46;71074.31;;;21.00;84.18
3844;BME280;1937;51.444;6.484;2022-07-23T07:22:14;71094.34;;;21.51;81.27
3844;BME280;1937;51.444;6.484;2022-07-23T07:24:43;70906.13;;;21.45;80.71
3844;BME280;1937;51.444;6.484;2022-07-23T07:27:12;70585.97;;;21.23;78.28
3844;BME280;1937;51.444;6.484;2022-07-23T07:29:40;70491.09;;;21.03;78.69
3844;BME280;1937;51.444;6.484;2022-07-23T07:32:08;70456.03;;;21.06;79.27
3844;BME280;1937;51.444;6.484;2022-07-23T07:34:36;70546.28;;;21.20;79.66
3844;BME280;1937;51.444;6.484;2022-07-23T07:37:05;70636.69;;;21.52;78.63
3844;BME280;1937;51.444;6.484;2022-07-23T07:39:33;70498.38;;;21.46;78.58
3844;BME280;1937;51.444;6.484;2022-07-23T07:42:03;70810.28;;;22.12;78.36
3844;BME280;1937;51.444;6.484;2022-07-23T07:44:33;70746.63;;;22.31;76.49
3844;BME280;1937;51.444;6.484;2022-07-23T07:47:01;70818.00;;;22.65;74.92
3844;BME280;1937;51.444;6.484;2022-07-23T07:49:30;70871.13;;;22.78;74.18
3844;BME280;1937;51.444;6.484;2022-07-23T07:51:58;70718.78;;;22.72;75.58
3844;BME280;1937;51.444;6.484;2022-07-23T07:54:26;70661.56;;;22.35;78.07
3844;BME280;1937;51.444;6.484;2022-07-23T07:56:54;70638.25;;;22.51;74.79
3844;BME280;1937;51.444;6.484;2022-07-23T07:59:24;70774.34;;;23.12;73.15
3844;BME280;1937;51.444;6.484;2022-07-23T08:01:52;70610.19;;;22.80;73.94
3844;BME280;1937;51.444;6.484;2022-07-23T08:04:21;70708.56;;;23.18;71.27
3844;BME280;1937;51.444;6.484;2022-07-23T08:06:49;70806.19;;;23.65;71.10
3844;BME280;1937;51.444;6.484;2022-07-23T08:09:17;70852.22;;;23.84;71.27
3844;BME280;1937;51.444;6.484;2022-07-23T08:11:45;70673.94;;;23.53;69.80
3844;BME280;1937;51.444;6.484;2022-07-23T08:14:14;70779.03;;;23.97;69.75
3844;BME280;1937;51.444;6.484;2022-07-23T08:16:43;70548.06;;;23.56;70.05
3844;BME280;1937;51.444;6.484;2022-07-23T08:19:12;70524.19;;;23.34;70.61
3844;BME280;1937;51.444;6.484;2022-07-23T08:21:40;70377.72;;;23.03;69.45
3844;BME280;1937;51.444;6.484;2022-07-23T08:24:08;70659.72;;;23.81;68.48
3844;BME280;1937;51.444;6.484;2022-07-23T08:26:37;70898.41;;;24.69;66.80
3844;BME280;1937;51.444;6.484;2022-07-23T08:29:05;70856.47;;;24.67;66.30
3844;BME280;1937;51.444;6.484;2022-07-23T08:31:33;70519.56;;;23.87;66.59
3844;BME280;1937;51.444;6.484;2022-07-23T08:34:03;70165.72;;;22.73;70.58
3844;BME280;1937;51.444;6.484;2022-07-23T08:36:31;70390.16;;;23.45;68.69
3844;BME280;1937;51.444;6.484;2022-07-23T08:38:59;70422.25;;;23.52;69.60
3844;BME280;1937;51.444;6.484;2022-07-23T08:41:30;70726.47;;;24.51;66.65
3844;BME280;1937;51.444;6.484;2022-07-23T08:43:58;70423.28;;;23.66;66.98
3844;BME280;1937;51.444;6.484;2022-07-23T08:46:27;70656.28;;;24.42;65.84
3844;BME280;1937;51.444;6.484;2022-07-23T08:48:56;70734.03;;;24.66;64.46
3844;BME280;1937;51.444;6.484;2022-07-23T08:51:28;70789.72;;;24.93;65.24
3844;BME280;1937;51.444;6.484;2022-07-23T08:53:58;70967.84;;;25.58;62.23
3844;BME280;1937;51.444;6.484;2022-07-23T08:56:26;70748.16;;;25.11;61.22
3844;BME280;1937;51.444;6.484;2022-07-23T08:58:56;70757.94;;;25.06;60.85
3844;BME280;1937;51.444;6.484;2022-07-23T09:01:24;71078.63;;;25.89;62.52
3844;BME280;1937;51.444;6.484;2022-07-23T09:03:52;70684.13;;;25.06;60.34
3844;BME280;1937;51.444;6.484;2022-07-23T09:06:20;70895.91;;;25.64;59.36
3844;BME280;1937;51.444;6.484;2022-07-23T09:08:50;70945.41;;;25.88;59.13
3844;BME280;1937;51.444;6.484;2022-07-23T09:11:19;70988.13;;;26.01;57.62
3844;BME280;1937;51.444;6.484;2022-07-23T09:13:49;70885.81;;;25.95;57.23
3844;BME280;1937;51.444;6.484;2022-07-23T09:16:26;70539.75;;;24.88;59.92
3844;BME280;1937;51.444;6.484;2022-07-23T09:18:57;70639.63;;;24.97;61.75
3844;BME280;1937;51.444;6.484;2022-07-23T09:21:27;70810.34;;;25.56;59.51
3844;BME280;1937;51.444;6.484;2022-07-23T09:23:59;70983.97;;;26.09;57.58
3844;BME280;1937;51.444;6.484;2022-07-23T09:26:29;70649.56;;;25.25;59.59
3844;BME280;1937;51.444;6.484;2022-07-23T09:29:01;70721.16;;;25.28;58.75
3844;BME280;1937;51.444;6.484;2022-07-23T09:31:33;70903.69;;;25.77;60.48
3844;BME280;1937;51.444;6.484;2022-07-23T09:34:17;70609.19;;;25.27;58.34
3844;BME280;1937;51.444;6.484;2022-07-23T09:36:45;70746.16;;;25.58;59.09
3844;BME280;1937;51.444;6.484;2022-07-23T09:39:26;70959.25;;;26.41;53.64
3844;BME280;1937;51.444;6.484;2022-07-23T09:41:55;71014.19;;;26.52;53.50
3844;BME280;1937;51.444;6.484;2022-07-23T09:44:26;70815.75;;;26.25;53.29
3844;BME280;1937;51.444;6.484;2022-07-23T09:47:07;70529.31;;;25.33;57.02
3844;BME280;1937;51.444;6.484;2022-07-23T09:49:59;70782.59;;;25.97;56.75
3844;BME280;1937;51.444;6.484;2022-07-23T09:52:33;70937.78;;;26.50;54.47
3844;BME280;1937;51.444;6.484;2022-07-23T09:55:04;71106.16;;;27.05;52.62
3844;BME280;1937;51.444;6.484;2022-07-23T09:57:33;70932.84;;;26.70;52.96
3844;BME280;1937;51.444;6.484;2022-07-23T10:00:03;70975.09;;;26.59;57.06
3844;BME280;1937;51.444;6.484;2022-07-23T10:02:34;70883.25;;;26.53;53.35
3844;BME280;1937;51.444;6.484;2022-07-23T10:05:04;70846.44;;;26.40;54.64
3844;BME280;1937;51.444;6.484;2022-07-23T10:07:34;70894.69;;;26.63;55.60
3844;BME280;1937;51.444;6.484;2022-07-23T10:10:07;70993.34;;;26.79;53.19
3844;BME280;1937;51.444;6.484;2022-07-23T10:12:35;71188.19;;;27.40;51.92
3844;BME280;1937;51.444;6.484;2022-07-23T10:15:22;71201.06;;;27.38;54.17
3844;BME280;1937;51.444;6.484;2022-07-23T10:17:52;70903.09;;;26.59;55.40
3844;BME280;1937;51.444;6.484;2022-07-23T10:20:21;70851.03;;;26.46;55.43
3844;BME280;1937;51.444;6.484;2022-07-23T10:23:05;70990.09;;;26.78;54.34
3844;BME280;1937;51.444;6.484;2022-07-23T10:25:45;71186.84;;;27.35;54.91
3844;BME280;1937;51.444;6.484;2022-07-23T10:28:29;71155.47;;;27.37;52.86
3844;BME280;1937;51.444;6.484;2022-07-23T10:31:05;71487.69;;;28.29;50.64
3844;BME280;1937;51.444;6.484;2022-07-23T10:33:45;71440.88;;;28.21;52.55
3844;BME280;1937;51.444;6.484;2022-07-23T10:36:21;71334.69;;;28.16;50.31
3844;BME280;1937;51.444;6.484;2022-07-23T10:38:54;71139.94;;;27.57;51.99
3844;BME280;1937;51.444;6.484;2022-07-23T10:41:37;70790.38;;;26.51;54.89
3844;BME280;1937;51.444;6.484;2022-07-23T10:44:06;70690.28;;;26.42;55.07
3844;BME280;1937;51.444;6.484;2022-07-23T10:46:35;70841.59;;;26.65;54.38
3844;BME280;1937;51.444;6.484;2022-07-23T10:49:23;70754.72;;;26.56;53.20
3844;BME280;1937;51.444;6.484;2022-07-23T10:52:19;70797.03;;;26.67;54.30
3844;BME280;1937;51.444;6.484;2022-07-23T10:54:50;70778.19;;;26.76;50.78
3844;BME280;1937;51.444;6.484;2022-07-23T10:57:23;71055.25;;;27.40;52.57
3844;BME280;1937;51.444;6.484;2022-07-23T11:00:13;71170.88;;;27.77;50.07
3844;BME280;1937;51.444;6.484;2022-07-23T11:02:44;70734.94;;;26.73;50.96
3844;BME280;1937;51.444;6.484;2022-07-23T11:05:16;70856.56;;;27.13;50.12
3844;BME280;1937;51.444;6.484;2022-07-23T11:08:15;70790.03;;;27.10;50.45
3844;BME280;1937;51.444;6.484;2022-07-23T11:10:47;71031.78;;;27.60;49.93
3844;BME280;1937;51.444;6.484;2022-07-23T11:13:32;71033.25;;;27.70;48.06
3844;BME280;1937;51.444;6.484;2022-07-23T11:16:16;70707.88;;;26.72;49.60
3844;BME280;1937;51.444;6.484;2022-07-23T11:19:06;70814.56;;;27.04;51.76
3844;BME280;1937;51.444;6.484;2022-07-23T11:21:57;70905.31;;;27.32;51.59
3844;BME280;1937;51.444;6.484;2022-07-23T11:24:26;70967.28;;;27.39;50.13
3844;BME280;1937;51.444;6.484;2022-07-23T11:27:03;70839.03;;;27.27;48.85
3844;BME280;1937;51.444;6.484;2022-07-23T11:29:47;70911.31;;;27.25;52.06
3844;BME280;1937;51.444;6.484;2022-07-23T11:32:38;70849.47;;;27.11;50.80
3844;BME280;1937;51.444;6.484;2022-07-23T11:35:23;70724.38;;;26.84;50.19
3844;BME280;1937;51.444;6.484;2022-07-23T11:37:54;70635.19;;;26.67;49.62
3844;BME280;1937;51.444;6.484;2022-07-23T11:40:30;70497.19;;;26.33;50.53
3844;BME280;1937;51.444;6.484;2022-07-23T11:43:00;70574.63;;;26.54;49.15
3844;BME280;1937;51.444;6.484;2022-07-23T11:45:35;70683.50;;;26.94;49.04
3844;BME280;1937;51.444;6.484;2022-07-23T11:48:06;70729.66;;;26.84;52.23
3844;BME280;1937;51.444;6.484;2022-07-23T11:50:35;71029.06;;;27.78;48.78
3844;BME280;1937;51.444;6.484;2022-07-23T11:53:04;71010.66;;;27.82;48.67
3844;BME280;1937;51.444;6.484;2022-07-23T11:55:32;70519.13;;;26.42;50.36
3844;BME280;1937;51.444;6.484;2022-07-23T11:58:00;70889.97;;;27.50;48.72
3844;BME280;1937;51.444;6.484;2022-07-23T12:00:31;71057.66;;;27.99;46.82
3844;BME280;1937;51.444;6.484;2022-07-23T12:03:02;71198.03;;;28.35;47.70
3844;BME280;1937;51.444;6.484;2022-07-23T12:05:32;71515.41;;;29.14;46.51
3844;BME280;1937;51.444;6.484;2022-07-23T12:08:03;71233.72;;;28.65;46.76
3844;BME280;1937;51.444;6.484;2022-07-23T12:10:39;70847.84;;;27.48;48.46
3844;BME280;1937;51.444;6.484;2022-07-23T12:13:10;71060.44;;;28.04;49.27
3844;BME280;1937;51.444;6.484;2022-07-23T12:15:42;71170.56;;;28.32;48.67
3844;BME280;1937;51.444;6.484;2022-07-23T12:18:12;71411.44;;;29.00;45.57
3844;BME280;1937;51.444;6.484;2022-07-23T12:20:42;70860.16;;;27.56;48.32
3844;BME280;1937;51.444;6.484;2022-07-23T12:23:13;70977.69;;;27.92;48.18
3844;BME280;1937;51.444;6.484;2022-07-23T12:25:43;70801.63;;;27.36;49.10
3844;BME280;1937;51.444;6.484;2022-07-23T12:28:14;70990.69;;;27.83;48.00
3844;BME280;1937;51.444;6.484;2022-07-23T12:30:47;71019.00;;;27.96;47.23
3844;BME280;1937;51.444;6.484;2022-07-23T12:33:21;70546.84;;;26.70;50.03
3844;BME280;1937;51.444;6.484;2022-07-23T12:35:51;70702.28;;;27.25;47.45
3844;BME280;1937;51.444;6.484;2022-07-23T12:38:22;71046.25;;;28.12;46.46
3844;BME280;1937;51.444;6.484;2022-07-23T12:40:52;71336.81;;;28.80;47.54
3844;BME280;1937;51.444;6.484;2022-07-23T12:43:23;71202.97;;;28.61;44.86
3844;BME280;1937;51.444;6.484;2022-07-23T12:45:54;71296.91;;;28.86;46.39
3844;BME280;1937;51.444;6.484;2022-07-23T12:48:24;71495.47;;;29.26;45.58
3844;BME280;1937;51.444;6.484;2022-07-23T12:50:57;71341.28;;;29.10;45.27
3844;BME280;1937;51.444;6.484;2022-07-23T12:53:29;71351.88;;;29.10;45.93
3844;BME280;1937;51.444;6.484;2022-07-23T12:56:03;71138.69;;;28.49;46.50
3844;BME280;1937;51.444;6.484;2022-07-23T12:58:45;71050.06;;;28.31;46.15
3844;BME280;1937;51.444;6.484;2022-07-23T13:01:24;71626.94;;;29.74;45.87
3844;BME280;1937;51.444;6.484;2022-07-23T13:03:59;71404.59;;;29.25;44.88
3844;BME280;1937;51.444;6.484;2022-07-23T13:06:28;71767.84;;;30.09;43.93
3844;BME280;1937;51.444;6.484;2022-07-23T13:08:58;71407.84;;;29.26;44.29
3844;BME280;1937;51.444;6.484;2022-07-23T13:11:27;71336.22;;;29.08;45.36
3844;BME280;1937;51.444;6.484;2022-07-23T13:13:55;71299.56;;;28.86;46.68
3844;BME280;1937;51.444;6.484;2022-07-23T13:16:25;71614.63;;;29.77;44.42
3844;BME280;1937;51.444;6.484;2022-07-23T13:18:53;71751.34;;;30.02;44.04
3844;BME280;1937;51.444;6.484;2022-07-23T13:21:23;71673.50;;;29.97;43.01
3844;BME280;1937;51.444;6.484;2022-07-23T13:23:51;72007.50;;;30.80;42.35
3844;BME280;1937;51.444;6.484;2022-07-23T13:26:20;72102.13;;;31.03;41.65
3844;BME280;1937;51.444;6.484;2022-07-23T13:28:48;72289.78;;;31.42;41.20
3844;BME280;1937;51.444;6.484;2022-07-23T13:31:17;72269.88;;;31.47;40.35
3844;BME280;1937;51.444;6.484;2022-07-23T13:33:47;71485.81;;;29.64;42.03
3844;BME280;1937;51.444;6.484;2022-07-23T13:36:16;71880.78;;;30.52;41.42
3844;BME280;1937;51.444;6.484;2022-07-23T13:38:44;71787.41;;;30.36;42.81